createdAt,value
2022-11-10T00:00:00.252Z,3
2022-11-10T00:01:00.258Z,2.44
2022-11-10T00:02:00.252Z,3
2022-11-10T00:03:00.258Z,2.89
2022-11-10T00:04:00.363Z,2.89
2022-11-10T00:05:00.262Z,3
2022-11-10T00:06:00.260Z,3
2022-11-10T00:07:00.281Z,3.17
2022-11-10T00:08:00.260Z,3.33
2022-11-10T00:09:00.266Z,3.17
2022-11-10T00:10:00.266Z,3.17
2022-11-10T00:11:00.265Z,3.44
2022-11-10T00:12:00.242Z,3
2022-11-10T00:13:00.260Z,3.17
2022-11-10T00:14:00.267Z,3
2022-11-10T00:15:00.257Z,3.17
2022-11-10T00:16:00.287Z,3
2022-11-10T00:17:00.251Z,3
2022-11-10T00:18:00.261Z,3
2022-11-10T00:19:00.266Z,2.89
2022-11-10T00:20:00.287Z,2.89
2022-11-10T00:21:00.264Z,2.89
2022-11-10T00:22:00.264Z,3
2022-11-10T00:23:00.255Z,3
2022-11-10T00:24:00.264Z,3
2022-11-10T00:25:00.258Z,2.61
2022-11-10T00:26:00.267Z,2.89
2022-11-10T00:27:00.263Z,3
2022-11-10T00:28:00.263Z,3
2022-11-10T00:29:00.267Z,3
2022-11-10T00:30:00.268Z,3
2022-11-10T00:31:00.254Z,2.89
2022-11-10T00:32:00.258Z,3
2022-11-10T00:33:00.273Z,2.72
2022-11-10T00:34:00.263Z,3.33
2022-11-10T00:35:00.267Z,3.33
2022-11-10T00:36:00.283Z,3.44
2022-11-10T00:37:00.264Z,3.44
2022-11-10T00:38:00.265Z,3.17
2022-11-10T00:39:00.264Z,3.44
2022-11-10T00:40:00.263Z,3.44
2022-11-10T00:41:00.260Z,3.44
2022-11-10T00:42:00.264Z,3.44
2022-11-10T00:43:00.268Z,3.44
2022-11-10T00:44:00.270Z,3.56
2022-11-10T00:45:00.275Z,3.56
2022-11-10T00:46:00.266Z,3.44
2022-11-10T00:47:00.265Z,3.33
2022-11-10T00:48:00.257Z,3.72
2022-11-10T00:49:00.265Z,3.56
2022-11-10T00:50:00.305Z,3.56
2022-11-10T00:51:00.262Z,3.44
2022-11-10T00:52:00.280Z,3.44
2022-11-10T00:53:00.266Z,3.33
2022-11-10T00:54:00.267Z,3.33
2022-11-10T00:55:00.267Z,3.33
2022-11-10T00:56:00.263Z,3
2022-11-10T00:57:00.261Z,3
2022-11-10T00:58:00.264Z,3
2022-11-10T00:59:00.266Z,2.89
2022-11-10T01:00:00.272Z,3
2022-11-10T01:01:00.298Z,2.72
2022-11-10T01:02:00.259Z,3
2022-11-10T01:03:00.258Z,3
2022-11-10T01:04:00.274Z,3
2022-11-10T01:05:00.265Z,3
2022-11-10T01:06:00.274Z,3
2022-11-10T01:07:00.320Z,3
2022-11-10T01:08:00.293Z,3
2022-11-10T01:09:00.270Z,3
2022-11-10T01:10:00.278Z,2.89
2022-11-10T01:11:00.267Z,3.17
2022-11-10T01:12:00.262Z,3.17
2022-11-10T01:13:00.279Z,3.17
2022-11-10T01:14:00.264Z,3
2022-11-10T01:15:00.267Z,3.17
2022-11-10T01:16:00.271Z,3.17
2022-11-10T01:17:00.268Z,3.17
2022-11-10T01:18:00.263Z,3.17
2022-11-10T01:19:00.276Z,3
2022-11-10T01:20:00.265Z,3.17
2022-11-10T01:21:00.263Z,3.33
2022-11-10T01:22:00.270Z,3
2022-11-10T01:23:00.263Z,3.33
2022-11-10T01:24:00.278Z,3.17
2022-11-10T01:25:00.272Z,3.17
2022-11-10T01:26:00.265Z,3.17
2022-11-10T01:27:00.268Z,3.17
2022-11-10T01:28:00.268Z,3
2022-11-10T01:29:00.262Z,3
2022-11-10T01:30:00.271Z,2.72
2022-11-10T01:31:00.266Z,3.17
2022-11-10T01:32:00.263Z,3.33
2022-11-10T01:33:00.275Z,3.33
2022-11-10T01:34:00.279Z,3.33
2022-11-10T01:35:00.272Z,3
2022-11-10T01:36:00.262Z,3.17
2022-11-10T01:37:00.276Z,3.33
2022-11-10T01:38:00.269Z,3.44
2022-11-10T01:39:00.269Z,3.33
2022-11-10T01:40:00.400Z,3.33
2022-11-10T01:41:00.274Z,3.17
2022-11-10T01:42:00.267Z,3.33
2022-11-10T01:43:00.263Z,3.44
2022-11-10T01:44:00.275Z,3.44
2022-11-10T01:45:00.272Z,3.56
2022-11-10T01:46:00.263Z,3.33
2022-11-10T01:47:00.272Z,3.72
2022-11-10T01:48:00.271Z,3.44
2022-11-10T01:49:00.269Z,3.72
2022-11-10T01:50:00.277Z,3.33
2022-11-10T01:51:00.266Z,3.72
2022-11-10T01:52:00.261Z,3.44
2022-11-10T01:53:00.267Z,3.72
2022-11-10T01:54:00.269Z,3.83
2022-11-10T01:55:00.270Z,3.33
2022-11-10T01:56:00.291Z,3.44
2022-11-10T01:57:00.266Z,3.56
2022-11-10T01:58:00.277Z,3.56
2022-11-10T01:59:00.263Z,3.72
2022-11-10T02:00:00.278Z,3.83
2022-11-10T02:01:00.355Z,3.56
2022-11-10T02:02:00.277Z,3.83
2022-11-10T02:03:00.267Z,3.83
2022-11-10T02:04:00.281Z,3.56
2022-11-10T02:05:00.282Z,3.83
2022-11-10T02:06:00.265Z,3.72
2022-11-10T02:07:00.343Z,3.33
2022-11-10T02:08:00.269Z,3.83
2022-11-10T02:09:00.273Z,3.72
2022-11-10T02:10:00.271Z,3.83
2022-11-10T02:11:00.268Z,3.83
2022-11-10T02:12:00.293Z,3.72
2022-11-10T02:13:00.278Z,3.94
2022-11-10T02:14:00.274Z,3.72
2022-11-10T02:15:00.265Z,3.83
2022-11-10T02:16:00.273Z,3.83
2022-11-10T02:17:00.282Z,3.56
2022-11-10T02:18:00.266Z,3.83
2022-11-10T02:19:00.278Z,3.72
2022-11-10T02:20:00.272Z,3.83
2022-11-10T02:21:00.287Z,3.83
2022-11-10T02:22:00.282Z,3.83
2022-11-10T02:23:00.283Z,3.72
2022-11-10T02:24:00.286Z,3.56
2022-11-10T02:25:00.279Z,3.83
2022-11-10T02:26:00.293Z,3.72
2022-11-10T02:27:00.279Z,3.56
2022-11-10T02:28:00.296Z,3.83
2022-11-10T02:29:00.277Z,3.83
2022-11-10T02:30:00.276Z,3.56
2022-11-10T02:31:00.270Z,3.72
2022-11-10T02:32:00.273Z,3.83
2022-11-10T02:33:00.272Z,3.83
2022-11-10T02:34:00.281Z,3.56
2022-11-10T02:35:00.278Z,3.56
2022-11-10T02:36:00.272Z,3.83
2022-11-10T02:37:00.278Z,4
2022-11-10T02:38:00.273Z,3.83
2022-11-10T02:39:00.286Z,3.83
2022-11-10T02:40:00.279Z,3.83
2022-11-10T02:41:00.277Z,3.56
2022-11-10T02:42:00.285Z,3.94
2022-11-10T02:43:00.276Z,3.44
2022-11-10T02:44:00.298Z,3.83
2022-11-10T02:45:00.273Z,3.83
2022-11-10T02:46:00.280Z,3.72
2022-11-10T02:47:00.276Z,3.44
2022-11-10T02:48:00.279Z,3.56
2022-11-10T02:49:00.289Z,3.94
2022-11-10T02:50:00.288Z,3.72
2022-11-10T02:51:00.275Z,3.83
2022-11-10T02:52:00.282Z,3.83
2022-11-10T02:53:00.283Z,4
2022-11-10T02:54:00.277Z,4
2022-11-10T02:55:00.289Z,3.83
2022-11-10T02:56:00.287Z,3.56
2022-11-10T02:57:00.277Z,3.72
2022-11-10T02:58:00.292Z,3.83
2022-11-10T02:59:00.287Z,3.72
2022-11-10T03:00:00.331Z,3.83
2022-11-10T03:01:00.299Z,3.83
2022-11-10T03:02:00.281Z,3.72
2022-11-10T03:03:00.284Z,3.56
2022-11-10T03:04:00.289Z,3.72
2022-11-10T03:05:00.283Z,3.72
2022-11-10T03:06:00.285Z,3.72
2022-11-10T03:07:00.356Z,3.83
2022-11-10T03:08:00.285Z,3.83
2022-11-10T03:09:00.287Z,3.83
2022-11-10T03:10:00.274Z,3.56
2022-11-10T03:11:00.281Z,3.83
2022-11-10T03:12:00.275Z,3.83
2022-11-10T03:13:00.278Z,3.61
2022-11-10T03:14:02.220Z,3.83
2022-11-10T03:15:00.285Z,3.72
2022-11-10T03:16:00.309Z,3.83
2022-11-10T03:17:00.303Z,3.78
2022-11-10T03:18:00.289Z,3.56
2022-11-10T03:19:00.288Z,3.72
2022-11-10T03:20:00.283Z,3.83
2022-11-10T03:21:00.293Z,3.72
2022-11-10T03:22:00.289Z,3.72
2022-11-10T03:23:00.287Z,3.83
2022-11-10T03:24:00.286Z,3.83
2022-11-10T03:25:00.288Z,3.61
2022-11-10T03:26:00.285Z,3.72
2022-11-10T03:27:00.284Z,3.72
2022-11-10T03:28:00.279Z,3.72
2022-11-10T03:29:00.289Z,3.56
2022-11-10T03:30:00.287Z,3.56
2022-11-10T03:31:00.289Z,3.56
2022-11-10T03:32:00.308Z,3.33
2022-11-10T03:33:00.284Z,3.72
2022-11-10T03:34:00.285Z,3.83
2022-11-10T03:35:00.285Z,3.72
2022-11-10T03:36:00.296Z,3.56
2022-11-10T03:37:00.294Z,3.72
2022-11-10T03:38:00.290Z,3.56
2022-11-10T03:39:00.291Z,3.83
2022-11-10T03:40:00.293Z,3.83
2022-11-10T03:42:00.291Z,3.83
2022-11-10T03:43:00.276Z,4
2022-11-10T03:44:00.285Z,3.94
2022-11-10T03:45:00.291Z,3.83
2022-11-10T03:46:00.293Z,3.83
2022-11-10T03:47:00.298Z,3.83
2022-11-10T03:48:00.309Z,3.56
2022-11-10T03:49:00.284Z,3.83
2022-11-10T03:50:00.304Z,3.78
2022-11-10T03:51:00.288Z,4
2022-11-10T03:52:00.293Z,3.72
2022-11-10T03:53:00.285Z,3.83
2022-11-10T03:54:00.288Z,3.72
2022-11-10T03:55:03.253Z,3.83
2022-11-10T03:56:00.293Z,4
2022-11-10T03:57:00.302Z,3.83
2022-11-10T03:58:00.288Z,3.83
2022-11-10T03:59:00.287Z,3.56
2022-11-10T04:00:00.299Z,3.83
2022-11-10T04:01:00.304Z,3.83
2022-11-10T04:02:00.334Z,3.5
2022-11-10T04:03:00.311Z,3.94
2022-11-10T04:04:00.322Z,3.56
2022-11-10T04:05:00.310Z,3.72
2022-11-10T04:06:00.312Z,3.89
2022-11-10T04:07:00.343Z,3.94
2022-11-10T04:08:00.298Z,3.83
2022-11-10T04:09:00.310Z,3.83
2022-11-10T04:10:00.310Z,3.94
2022-11-10T04:11:00.297Z,3.89
2022-11-10T04:12:00.307Z,3.83
2022-11-10T04:13:00.326Z,3.72
2022-11-10T04:14:00.297Z,3.94
2022-11-10T04:15:00.306Z,3.72
2022-11-10T04:16:00.306Z,3.83
2022-11-10T04:17:00.309Z,3.83
2022-11-10T04:18:00.312Z,3.94
2022-11-10T04:19:00.303Z,3.78
2022-11-10T04:20:00.345Z,3.44
2022-11-10T04:21:00.307Z,3.78
2022-11-10T04:22:00.313Z,3.83
2022-11-10T04:23:00.298Z,3.94
2022-11-10T04:24:00.321Z,3.83
2022-11-10T04:25:00.305Z,3.78
2022-11-10T04:26:00.304Z,4.17
2022-11-10T04:27:00.318Z,4.17
2022-11-10T04:28:00.304Z,3.83
2022-11-10T04:29:00.309Z,3.94
2022-11-10T04:30:00.314Z,3.78
2022-11-10T04:31:00.304Z,3.83
2022-11-10T04:32:00.307Z,3.61
2022-11-10T04:33:00.314Z,3.83
2022-11-10T04:34:00.305Z,3.56
2022-11-10T04:35:00.321Z,4.06
2022-11-10T04:36:00.332Z,4.17
2022-11-10T04:37:00.310Z,3.83
2022-11-10T04:38:00.307Z,3.56
2022-11-10T04:39:00.311Z,3.78
2022-11-10T04:40:00.312Z,4.22
2022-11-10T04:41:00.307Z,4.06
2022-11-10T04:42:02.573Z,3.94
2022-11-10T04:43:00.321Z,4
2022-11-10T04:44:00.311Z,4.22
2022-11-10T04:45:00.307Z,3.89
2022-11-10T04:46:00.309Z,4
2022-11-10T04:47:00.318Z,4.11
2022-11-10T04:48:00.313Z,4
2022-11-10T04:49:00.319Z,4.11
2022-11-10T04:50:00.333Z,4.11
2022-11-10T04:51:00.319Z,4.11
2022-11-10T04:52:00.388Z,4.11
2022-11-10T04:53:00.319Z,3.94
2022-11-10T04:54:00.311Z,3.67
2022-11-10T04:55:00.315Z,3.94
2022-11-10T04:56:00.329Z,4.11
2022-11-10T04:57:00.312Z,3.89
2022-11-10T04:58:00.320Z,3.78
2022-11-10T04:59:00.317Z,3.78
2022-11-10T05:00:00.318Z,3.61
2022-11-10T05:01:00.335Z,3.94
2022-11-10T05:02:00.317Z,3.94
2022-11-10T05:03:00.319Z,4.22
2022-11-10T05:04:00.310Z,4.11
2022-11-10T05:05:00.317Z,4.39
2022-11-10T05:06:00.321Z,4
2022-11-10T05:07:00.404Z,3.72
2022-11-10T05:08:00.334Z,4
2022-11-10T05:09:00.321Z,4.11
2022-11-10T05:10:00.317Z,4
2022-11-10T05:11:00.314Z,4.39
2022-11-10T05:12:00.318Z,3.94
2022-11-10T05:13:00.329Z,4.17
2022-11-10T05:14:00.319Z,4.11
2022-11-10T05:15:00.333Z,3.94
2022-11-10T05:16:00.333Z,4.39
2022-11-10T05:17:00.323Z,4.06
2022-11-10T05:18:00.323Z,3.94
2022-11-10T05:19:00.323Z,4.22
2022-11-10T05:20:00.332Z,4
2022-11-10T05:21:00.323Z,3.94
2022-11-10T05:22:00.323Z,4
2022-11-10T05:23:00.320Z,4.11
2022-11-10T05:24:00.346Z,4
2022-11-10T05:25:00.327Z,4.22
2022-11-10T05:26:00.321Z,4.39
2022-11-10T05:27:00.319Z,4.06
2022-11-10T05:28:00.322Z,4.17
2022-11-10T05:29:00.327Z,4.44
2022-11-10T05:30:00.322Z,4.39
2022-11-10T05:31:00.326Z,4.28
2022-11-10T05:32:00.326Z,4.17
2022-11-10T05:33:00.323Z,4
2022-11-10T05:34:00.340Z,4.22
2022-11-10T05:35:00.360Z,4.22
2022-11-10T05:36:00.338Z,4.22
2022-11-10T05:37:00.323Z,4.11
2022-11-10T05:38:00.330Z,4
2022-11-10T05:39:00.328Z,4.22
2022-11-10T05:40:00.347Z,3.94
2022-11-10T05:41:00.327Z,3.78
2022-11-10T05:42:00.328Z,4.11
2022-11-10T05:43:00.339Z,4.11
2022-11-10T05:44:00.327Z,3.78
2022-11-10T05:45:00.342Z,3.67
2022-11-10T05:46:00.340Z,4.11
2022-11-10T05:47:00.341Z,4.11
2022-11-10T05:48:00.337Z,4.11
2022-11-10T05:49:00.323Z,4.22
2022-11-10T05:50:00.334Z,4.22
2022-11-10T05:51:00.325Z,3.94
2022-11-10T05:52:00.327Z,3.67
2022-11-10T05:53:00.333Z,4.11
2022-11-10T05:54:00.338Z,3.78
2022-11-10T05:55:00.332Z,4.22
2022-11-10T05:56:00.349Z,4.11
2022-11-10T05:57:00.331Z,4.11
2022-11-10T05:58:00.321Z,4.39
2022-11-10T05:59:00.341Z,4.11
2022-11-10T06:00:00.333Z,4.22
2022-11-10T06:01:00.321Z,3.78
2022-11-10T06:02:00.329Z,4.22
2022-11-10T06:03:00.337Z,4.11
2022-11-10T06:04:00.390Z,4.11
2022-11-10T06:05:00.332Z,4.39
2022-11-10T06:06:00.343Z,4.22
2022-11-10T06:07:00.369Z,4.22
2022-11-10T06:08:00.339Z,4.11
2022-11-10T06:09:00.322Z,4.11
2022-11-10T06:10:00.332Z,4.11
2022-11-10T06:11:00.329Z,4.11
2022-11-10T06:12:00.355Z,3.78
2022-11-10T06:13:00.334Z,3.78
2022-11-10T06:14:00.328Z,4.39
2022-11-10T06:15:00.334Z,3.94
2022-11-10T06:16:00.331Z,4.39
2022-11-10T06:17:00.328Z,4
2022-11-10T06:18:00.329Z,4.22
2022-11-10T06:19:00.338Z,4.22
2022-11-10T06:20:00.335Z,4.22
2022-11-10T06:21:00.336Z,4.11
2022-11-10T06:22:03.747Z,4.11
2022-11-10T06:23:00.331Z,4.22
2022-11-10T06:24:00.313Z,4.39
2022-11-10T06:25:00.334Z,4.39
2022-11-10T06:26:00.334Z,4.22
2022-11-10T06:27:00.333Z,4.39
2022-11-10T06:28:00.359Z,4.5
2022-11-10T06:29:00.335Z,4.11
2022-11-10T06:30:00.338Z,4.22
2022-11-10T06:31:00.340Z,4.22
2022-11-10T06:32:00.332Z,4.22
2022-11-10T06:33:00.331Z,4.5
2022-11-10T06:34:00.331Z,4.39
2022-11-10T06:35:00.906Z,3.78
2022-11-10T06:36:00.333Z,4.22
2022-11-10T06:37:00.335Z,4.22
2022-11-10T06:38:00.338Z,4.11
2022-11-10T06:39:00.343Z,4.39
2022-11-10T06:40:00.335Z,4.11
2022-11-10T06:41:00.332Z,4.22
2022-11-10T06:42:00.343Z,4.39
2022-11-10T06:43:00.343Z,4.39
2022-11-10T06:44:00.375Z,4.5
2022-11-10T06:45:00.335Z,4.39
2022-11-10T06:46:00.341Z,4.11
2022-11-10T06:47:00.334Z,4.22
2022-11-10T06:48:00.340Z,3.94
2022-11-10T06:49:00.335Z,4.5
2022-11-10T06:50:00.337Z,4.5
2022-11-10T06:51:00.336Z,4.5
2022-11-10T06:52:00.336Z,4.39
2022-11-10T06:53:00.363Z,4.11
2022-11-10T06:54:00.343Z,4.5
2022-11-10T06:55:00.340Z,4.5
2022-11-10T06:56:00.344Z,4.67
2022-11-10T06:57:00.343Z,4.39
2022-11-10T06:58:00.361Z,4.5
2022-11-10T06:59:00.343Z,4.67
2022-11-10T07:00:00.363Z,4.67
2022-11-10T07:01:00.381Z,4.5
2022-11-10T07:02:00.334Z,4.5
2022-11-10T07:03:00.346Z,4.67
2022-11-10T07:04:18.522Z,4.67
2022-11-10T07:05:00.371Z,4.5
2022-11-10T07:06:00.347Z,4.5
2022-11-10T07:07:00.474Z,4.5
2022-11-10T07:08:00.348Z,4.39
2022-11-10T07:09:00.344Z,4.5
2022-11-10T07:10:04.212Z,4.5
2022-11-10T07:11:00.335Z,4.11
2022-11-10T07:12:00.339Z,4.67
2022-11-10T07:13:00.339Z,4.5
2022-11-10T07:14:00.343Z,4.67
2022-11-10T07:15:00.350Z,4.67
2022-11-10T07:16:00.370Z,4.83
2022-11-10T07:17:00.340Z,4.83
2022-11-10T07:18:00.344Z,4.5
2022-11-10T07:19:00.347Z,4.67
2022-11-10T07:20:00.348Z,4.5
2022-11-10T07:21:00.358Z,4.11
2022-11-10T07:22:00.350Z,4.5
2022-11-10T07:23:00.350Z,4.5
2022-11-10T07:24:00.350Z,4.5
2022-11-10T07:25:00.345Z,4.5
2022-11-10T07:26:00.344Z,4.5
2022-11-10T07:27:00.354Z,4.22
2022-11-10T07:28:00.349Z,4.11
2022-11-10T07:29:00.343Z,4.67
2022-11-10T07:30:00.360Z,4.5
2022-11-10T07:31:00.347Z,4.67
2022-11-10T07:32:00.375Z,4.5
2022-11-10T07:33:00.345Z,4.11
2022-11-10T07:34:00.350Z,4.39
2022-11-10T07:35:00.347Z,3.94
2022-11-10T07:36:00.360Z,4.39
2022-11-10T07:37:00.346Z,4.5
2022-11-10T07:38:00.347Z,4.5
2022-11-10T07:39:00.351Z,4.39
2022-11-10T07:40:00.344Z,4.5
2022-11-10T07:41:00.347Z,4.22
2022-11-10T07:42:00.341Z,4.67
2022-11-10T07:43:00.368Z,4.67
2022-11-10T07:44:00.352Z,4.39
2022-11-10T07:45:00.352Z,4.67
2022-11-10T07:46:00.352Z,4.67
2022-11-10T07:47:00.349Z,4.94
2022-11-10T07:48:00.372Z,4.83
2022-11-10T07:49:00.359Z,4.67
2022-11-10T07:50:00.347Z,4.67
2022-11-10T07:51:00.350Z,4.83
2022-11-10T07:52:00.347Z,4.94
2022-11-10T07:53:00.355Z,4.83
2022-11-10T07:54:00.347Z,4.94
2022-11-10T07:55:00.349Z,4.94
2022-11-10T07:56:00.357Z,4.83
2022-11-10T07:57:00.356Z,4.83
2022-11-10T07:58:00.350Z,4.83
2022-11-10T07:59:00.357Z,4.83
2022-11-10T08:00:00.365Z,4.39
2022-11-10T08:01:00.351Z,5.11
2022-11-10T08:02:00.419Z,4.94
2022-11-10T08:03:00.355Z,5.11
2022-11-10T08:04:00.379Z,4.94
2022-11-10T08:05:00.357Z,4.94
2022-11-10T08:06:00.369Z,4.94
2022-11-10T08:07:00.458Z,4.67
2022-11-10T08:08:00.363Z,4.94
2022-11-10T08:09:00.359Z,5.22
2022-11-10T08:10:00.366Z,5.22
2022-11-10T08:11:00.357Z,5.22
2022-11-10T08:12:00.364Z,5.39
2022-11-10T08:13:00.357Z,5.56
2022-11-10T08:14:00.361Z,5.39
2022-11-10T08:15:00.355Z,5.67
2022-11-10T08:16:00.364Z,5.56
2022-11-10T08:17:00.361Z,5.39
2022-11-10T08:18:00.373Z,5.39
2022-11-10T08:19:00.366Z,5.67
2022-11-10T08:20:00.382Z,5.61
2022-11-10T08:21:00.361Z,5.67
2022-11-10T08:22:00.367Z,5.39
2022-11-10T08:23:00.369Z,5.56
2022-11-10T08:24:00.360Z,5.78
2022-11-10T08:25:00.363Z,5.78
2022-11-10T08:26:00.375Z,5.67
2022-11-10T08:27:00.366Z,5.78
2022-11-10T08:28:00.364Z,5.78
2022-11-10T08:29:00.375Z,5.78
2022-11-10T08:30:00.361Z,5.78
2022-11-10T08:31:04.388Z,5.67
2022-11-10T08:32:00.364Z,5.67
2022-11-10T08:33:00.374Z,5.78
2022-11-10T08:34:00.368Z,6.06
2022-11-10T08:35:00.374Z,5.94
2022-11-10T08:36:00.390Z,5.94
2022-11-10T08:37:00.363Z,5.67
2022-11-10T08:38:02.992Z,6.06
2022-11-10T08:39:00.366Z,5.78
2022-11-10T08:40:00.355Z,5.78
2022-11-10T08:41:00.370Z,6.06
2022-11-10T08:42:00.367Z,5.78
2022-11-10T08:43:00.367Z,5.78
2022-11-10T08:44:00.371Z,5.78
2022-11-10T08:45:00.366Z,5.78
2022-11-10T08:46:00.373Z,5.78
2022-11-10T08:47:00.370Z,5.94
2022-11-10T08:48:00.367Z,6.22
2022-11-10T08:49:00.366Z,5.94
2022-11-10T08:50:00.379Z,5.78
2022-11-10T08:51:00.367Z,5.67
2022-11-10T08:52:00.427Z,5.78
2022-11-10T08:53:00.365Z,5.78
2022-11-10T08:54:00.366Z,5.39
2022-11-10T08:55:00.390Z,5.78
2022-11-10T08:56:00.389Z,5.94
2022-11-10T08:57:00.367Z,5.78
2022-11-10T08:58:00.382Z,6.22
2022-11-10T08:59:00.367Z,5.56
2022-11-10T09:00:00.371Z,6.06
2022-11-10T09:01:00.367Z,6.22
2022-11-10T09:02:00.390Z,6.39
2022-11-10T09:03:00.366Z,6.67
2022-11-10T09:04:00.378Z,6.67
2022-11-10T09:05:00.425Z,6.67
2022-11-10T09:06:00.362Z,6.67
2022-11-10T09:07:00.432Z,6.5
2022-11-10T09:08:00.395Z,6.67
2022-11-10T09:09:00.366Z,6.67
2022-11-10T09:10:06.506Z,6.67
2022-11-10T09:11:00.366Z,6.67
2022-11-10T09:12:00.375Z,6.67
2022-11-10T09:13:00.404Z,6.67
2022-11-10T09:14:00.372Z,5.94
2022-11-10T09:15:00.365Z,6.39
2022-11-10T09:16:00.379Z,6.67
2022-11-10T09:17:00.379Z,7.11
2022-11-10T09:18:00.371Z,6.94
2022-11-10T09:19:00.375Z,6.67
2022-11-10T09:20:00.518Z,6.78
2022-11-10T09:21:00.363Z,6.78
2022-11-10T09:22:00.369Z,6.94
2022-11-10T09:23:00.374Z,7.11
2022-11-10T09:24:00.398Z,6.94
2022-11-10T09:25:00.376Z,6.94
2022-11-10T09:26:00.379Z,6.78
2022-11-10T09:27:00.373Z,6.67
2022-11-10T09:28:00.386Z,6.78
2022-11-10T09:29:00.380Z,6.67
2022-11-10T09:30:00.385Z,6.5
2022-11-10T09:31:00.393Z,6.67
2022-11-10T09:32:00.374Z,6.39
2022-11-10T09:33:00.383Z,6.5
2022-11-10T09:34:00.382Z,6.39
2022-11-10T09:35:00.374Z,6.39
2022-11-10T09:36:00.394Z,6.67
2022-11-10T09:37:00.376Z,6.5
2022-11-10T09:38:00.408Z,6.78
2022-11-10T09:39:00.376Z,6.67
2022-11-10T09:40:01.505Z,6.67
2022-11-10T09:41:00.381Z,6.67
2022-11-10T09:42:00.377Z,6.78
2022-11-10T09:43:00.382Z,6.5
2022-11-10T09:44:00.376Z,6.67
2022-11-10T09:45:00.393Z,6.67
2022-11-10T09:46:00.377Z,6.78
2022-11-10T09:47:00.404Z,6.67
2022-11-10T09:48:00.403Z,6.94
2022-11-10T09:49:00.380Z,6.67
2022-11-10T09:50:00.385Z,6.67
2022-11-10T09:51:00.392Z,6.39
2022-11-10T09:52:00.376Z,6.39
2022-11-10T09:53:00.377Z,6.5
2022-11-10T09:54:00.380Z,6.5
2022-11-10T09:55:00.370Z,6.5
2022-11-10T09:56:00.402Z,6.78
2022-11-10T09:57:00.396Z,6.39
2022-11-10T09:58:00.381Z,6.5
2022-11-10T09:59:00.381Z,6.5
2022-11-10T10:00:00.381Z,6.67
2022-11-10T10:01:00.441Z,6.5
2022-11-10T10:02:00.435Z,6.67
2022-11-10T10:03:00.390Z,6.78
2022-11-10T10:04:00.388Z,6.67
2022-11-10T10:05:00.387Z,6.67
2022-11-10T10:06:00.388Z,6.39
2022-11-10T10:07:10.479Z,6.67
2022-11-10T10:08:00.471Z,6.78
2022-11-10T10:09:00.382Z,7.11
2022-11-10T10:10:00.396Z,6.94
2022-11-10T10:11:00.409Z,6.94
2022-11-10T10:12:00.415Z,7.11
2022-11-10T10:13:00.381Z,6.94
2022-11-10T10:14:00.394Z,7.11
2022-11-10T10:15:00.390Z,7.11
2022-11-10T10:16:00.386Z,6.94
2022-11-10T10:17:00.387Z,7.11
2022-11-10T10:18:00.387Z,7.11
2022-11-10T10:19:00.385Z,7.11
2022-11-10T10:20:00.389Z,7.11
2022-11-10T10:21:00.382Z,7.11
2022-11-10T10:22:00.398Z,7.22
2022-11-10T10:23:00.387Z,7.22
2022-11-10T10:24:11.275Z,7.11
2022-11-10T10:25:00.396Z,7.11
2022-11-10T10:26:00.397Z,7.11
2022-11-10T10:27:00.399Z,6.94
2022-11-10T10:28:00.411Z,7.11
2022-11-10T10:29:00.382Z,7.11
2022-11-10T10:30:00.392Z,6.94
2022-11-10T10:31:00.388Z,7.5
2022-11-10T10:32:00.394Z,7.5
2022-11-10T10:33:00.384Z,7.5
2022-11-10T10:34:00.395Z,7.78
2022-11-10T10:35:00.395Z,7.67
2022-11-10T10:36:00.396Z,7.78
2022-11-10T10:37:00.398Z,7.94
2022-11-10T10:38:00.394Z,7.94
2022-11-10T10:39:00.394Z,7.67
2022-11-10T10:40:00.399Z,7.94
2022-11-10T10:41:00.393Z,8.11
2022-11-10T10:42:00.400Z,7.78
2022-11-10T10:43:00.402Z,8.11
2022-11-10T10:44:00.424Z,8.39
2022-11-10T10:45:00.435Z,8.61
2022-11-10T10:46:00.397Z,8.61
2022-11-10T10:47:00.391Z,8.61
2022-11-10T10:48:00.392Z,8.78
2022-11-10T10:49:22.502Z,8.61
2022-11-10T10:50:00.395Z,8.78
2022-11-10T10:51:00.397Z,8.61
2022-11-10T10:52:00.397Z,8.94
2022-11-10T10:53:00.390Z,9.06
2022-11-10T10:54:00.401Z,9.39
2022-11-10T10:55:00.398Z,9.67
2022-11-10T10:56:00.399Z,9.78
2022-11-10T10:57:00.394Z,8.94
2022-11-10T10:58:00.399Z,9.39
2022-11-10T10:59:00.392Z,9.5
2022-11-10T11:00:00.422Z,9.5
2022-11-10T11:01:00.411Z,9.67
2022-11-10T11:02:00.493Z,9.67
2022-11-10T11:03:04.392Z,9.67
2022-11-10T11:04:00.388Z,9.67
2022-11-10T11:05:00.396Z,9.67
2022-11-10T11:06:00.403Z,9.78
2022-11-10T11:07:00.495Z,9.39
2022-11-10T11:08:00.400Z,9.22
2022-11-10T11:09:00.510Z,9.5
2022-11-10T11:10:00.400Z,9.22
2022-11-10T11:11:00.409Z,9.5
2022-11-10T11:12:00.397Z,8.94
2022-11-10T11:13:00.398Z,9.39
2022-11-10T11:14:00.412Z,9.39
2022-11-10T11:15:00.421Z,9.5
2022-11-10T11:16:00.418Z,9.39
2022-11-10T11:17:00.477Z,9.39
2022-11-10T11:18:00.403Z,9.22
2022-11-10T11:19:00.403Z,9.06
2022-11-10T11:20:00.530Z,8.94
2022-11-10T11:21:00.395Z,8.61
2022-11-10T11:22:00.404Z,8.78
2022-11-10T11:23:00.408Z,8.78
2022-11-10T11:24:00.408Z,8.78
2022-11-10T11:25:00.398Z,8.78
2022-11-10T11:26:00.408Z,8.61
2022-11-10T11:27:00.403Z,8.78
2022-11-10T11:28:00.398Z,8.94
2022-11-10T11:29:00.394Z,8.78
2022-11-10T11:30:00.404Z,8.61
2022-11-10T11:31:00.397Z,8.61
2022-11-10T11:32:00.421Z,8.28
2022-11-10T11:33:00.399Z,8.39
2022-11-10T11:34:00.403Z,8.39
2022-11-10T11:35:00.405Z,8.61
2022-11-10T11:36:00.399Z,8.94
2022-11-10T11:37:00.764Z,8.78
2022-11-10T11:38:00.401Z,8.5
2022-11-10T11:39:00.403Z,8.61
2022-11-10T11:40:00.409Z,8.61
2022-11-10T11:41:00.401Z,8.61
2022-11-10T11:42:00.402Z,8.78
2022-11-10T11:43:00.407Z,9.06
2022-11-10T11:44:00.413Z,9.22
2022-11-10T11:45:00.406Z,8.78
2022-11-10T11:46:00.404Z,9.39
2022-11-10T11:47:00.403Z,9.67
2022-11-10T11:48:00.428Z,9.67
2022-11-10T11:49:00.406Z,9.94
2022-11-10T11:50:00.402Z,9.22
2022-11-10T11:51:00.404Z,8.94
2022-11-10T11:52:00.414Z,8.94
2022-11-10T11:53:00.404Z,8.61
2022-11-10T11:54:00.410Z,8.5
2022-11-10T11:55:00.420Z,8.78
2022-11-10T11:56:00.401Z,8.5
2022-11-10T11:57:00.403Z,8.78
2022-11-10T11:58:00.421Z,8.78
2022-11-10T11:59:00.403Z,9.22
2022-11-10T12:00:00.409Z,8.78
2022-11-10T12:01:00.399Z,9.06
2022-11-10T12:02:00.445Z,9.06
2022-11-10T12:03:00.453Z,9.06
2022-11-10T12:04:00.426Z,9.06
2022-11-10T12:05:00.410Z,8.94
2022-11-10T12:06:00.409Z,8.78
2022-11-10T12:07:00.469Z,8.94
2022-11-10T12:08:00.410Z,9.22
2022-11-10T12:09:00.413Z,9.67
2022-11-10T12:10:00.407Z,9.67
2022-11-10T12:11:00.403Z,9.39
2022-11-10T12:12:00.416Z,9.78
2022-11-10T12:13:00.413Z,10.39
2022-11-10T12:14:00.391Z,10.11
2022-11-10T12:15:00.400Z,10.11
2022-11-10T12:16:00.407Z,9.78
2022-11-10T12:17:00.408Z,9.94
2022-11-10T12:18:00.419Z,9.67
2022-11-10T12:19:00.408Z,9.67
2022-11-10T12:20:00.436Z,9.22
2022-11-10T12:21:00.403Z,10.39
2022-11-10T12:22:00.415Z,10.22
2022-11-10T12:23:00.404Z,9.67
2022-11-10T12:24:00.411Z,10.11
2022-11-10T12:25:00.413Z,10.39
2022-11-10T12:26:00.411Z,10.83
2022-11-10T12:27:00.405Z,11.44
2022-11-10T12:28:00.411Z,11.44
2022-11-10T12:29:00.411Z,11.72
2022-11-10T12:30:00.408Z,12.44
2022-11-10T12:31:01.862Z,12.72
2022-11-10T12:32:00.412Z,12.72
2022-11-10T12:33:00.398Z,12.72
2022-11-10T12:34:00.408Z,13.06
2022-11-10T12:35:00.408Z,13.06
2022-11-10T12:36:00.438Z,13.06
2022-11-10T12:37:00.407Z,12.72
2022-11-10T12:38:00.409Z,13.06
2022-11-10T12:39:00.486Z,12.72
2022-11-10T12:40:00.411Z,11.83
2022-11-10T12:41:00.417Z,11.44
2022-11-10T12:42:00.407Z,11
2022-11-10T12:43:00.412Z,11.28
2022-11-10T12:44:00.419Z,11.44
2022-11-10T12:45:00.412Z,11.44
2022-11-10T12:46:00.414Z,11.94
2022-11-10T12:47:00.407Z,11.83
2022-11-10T12:48:00.421Z,11.44
2022-11-10T12:49:00.412Z,11.61
2022-11-10T12:50:00.408Z,11.83
2022-11-10T12:51:00.427Z,11.83
2022-11-10T12:52:00.427Z,12.56
2022-11-10T12:53:02.816Z,12.56
2022-11-10T12:54:00.415Z,13.17
2022-11-10T12:55:00.413Z,13.17
2022-11-10T12:56:00.414Z,12.28
2022-11-10T12:57:00.414Z,12.72
2022-11-10T12:58:00.416Z,12.11
2022-11-10T12:59:00.422Z,12.28
2022-11-10T13:00:00.406Z,11.83
2022-11-10T13:01:00.473Z,11.61
2022-11-10T13:02:00.424Z,11.28
2022-11-10T13:03:00.411Z,12.28
2022-11-10T13:04:00.420Z,12.28
2022-11-10T13:05:00.411Z,11.83
2022-11-10T13:06:00.414Z,11.44
2022-11-10T13:07:00.495Z,11.44
2022-11-10T13:08:00.490Z,11.44
2022-11-10T13:09:00.413Z,12.28
2022-11-10T13:10:00.414Z,13.06
2022-11-10T13:11:00.413Z,13.17
2022-11-10T13:12:00.413Z,12.89
2022-11-10T13:13:00.414Z,12.72
2022-11-10T13:14:00.525Z,12.56
2022-11-10T13:15:00.426Z,12.44
2022-11-10T13:16:00.430Z,12.72
2022-11-10T13:17:00.410Z,12.17
2022-11-10T13:18:00.417Z,11.89
2022-11-10T13:19:00.416Z,11.17
2022-11-10T13:20:09.452Z,11.06
2022-11-10T13:21:00.446Z,11.17
2022-11-10T13:22:00.423Z,10.44
2022-11-10T13:23:00.420Z,10.89
2022-11-10T13:24:00.515Z,10.72